Time;durP1;ratioP1;P1;durP2;ratioP2;P2;SDS_P1;SDS_P2;PMS_P1;PMS_P2;Temp;Humidity;BMP_temperature;BMP_pressure;BME280_temperature;BME280_humidity;BME280_pressure;Samples;Min_cycle;Max_cycle;Signal;HPM_P1;HPM_P2
2023/06/28 00:00:25;;;;;;;6.57;1.90;;;13.20;99.90;;;;;;4992173;28;20209;-87
2023/06/28 00:03:00;;;;;;;7.30;1.95;;;13.20;99.90;;;;;;4992445;28;20198;-88
2023/06/28 00:05:31;;;;;;;5.22;1.85;;;13.30;99.90;;;;;;5010911;28;20201;-88
2023/06/28 00:08:03;;;;;;;4.63;1.80;;;13.40;99.90;;;;;;5012366;28;20207;-88
2023/06/28 00:10:36;;;;;;;2.25;1.70;;;13.40;99.90;;;;;;5012881;28;20449;-89
2023/06/28 00:13:07;;;;;;;5.18;2.05;;;13.40;99.90;;;;;;5013714;28;20202;-89
2023/06/28 00:15:40;;;;;;;4.63;1.88;;;13.40;99.90;;;;;;5012613;28;20210;-89
2023/06/28 00:18:16;;;;;;;6.82;2.05;;;13.40;99.90;;;;;;5012429;28;20233;-88
2023/06/28 00:20:48;;;;;;;4.70;1.92;;;13.50;99.90;;;;;;5011014;28;20289;-88
2023/06/28 00:23:19;;;;;;;5.55;1.77;;;13.50;99.90;;;;;;5015032;28;20205;-89
2023/06/28 00:25:52;;;;;;;4.85;2.08;;;13.50;99.90;;;;;;5016277;28;20209;-89
2023/06/28 00:28:23;;;;;;;3.72;1.85;;;13.50;99.90;;;;;;5016780;28;20672;-89
2023/06/28 00:30:54;;;;;;;3.10;1.88;;;13.60;99.90;;;;;;5015955;28;20207;-89
2023/06/28 00:33:30;;;;;;;3.38;1.52;;;13.70;99.90;;;;;;5015247;28;20206;-89
2023/06/28 00:36:02;;;;;;;3.53;1.52;;;13.70;99.90;;;;;;5015584;28;20205;-88
2023/06/28 00:38:34;;;;;;;3.08;1.80;;;13.80;99.90;;;;;;5015470;28;20229;-88
2023/06/28 00:41:05;;;;;;;3.17;1.35;;;13.80;99.90;;;;;;5015812;28;20364;-89
2023/06/28 00:43:37;;;;;;;4.32;2.10;;;13.80;99.90;;;;;;5016233;28;20210;-88
2023/06/28 00:46:09;;;;;;;4.07;1.70;;;13.90;99.90;;;;;;5001448;28;20207;-90
2023/06/28 00:48:46;;;;;;;4.18;1.52;;;13.80;99.90;;;;;;4997061;28;20254;-90
2023/06/28 00:51:17;;;;;;;3.60;1.55;;;13.70;99.90;;;;;;5011920;28;20265;-86
2023/06/28 00:53:48;;;;;;;6.50;1.98;;;13.70;99.90;;;;;;5019330;28;20183;-89
2023/06/28 00:56:23;;;;;;;6.68;1.70;;;13.70;99.90;;;;;;5017349;28;20194;-89
2023/06/28 00:58:55;;;;;;;5.75;1.70;;;13.70;99.90;;;;;;5014473;28;20230;-90
2023/06/28 01:01:26;;;;;;;3.63;1.55;;;13.70;99.90;;;;;;5013008;28;20207;-90
2023/06/28 01:04:02;;;;;;;4.93;1.70;;;13.70;99.90;;;;;;4998239;28;20236;-90
2023/06/28 01:06:35;;;;;;;5.78;1.60;;;13.70;99.90;;;;;;4984709;28;20375;-90
2023/06/28 01:09:08;;;;;;;4.68;1.58;;;13.60;99.90;;;;;;4982091;28;20203;-90
2023/06/28 01:11:41;;;;;;;4.20;1.90;;;13.60;99.90;;;;;;4985769;28;20202;-90
2023/06/28 01:14:12;;;;;;;5.70;2.25;;;13.60;99.90;;;;;;4994507;28;20285;-90
2023/06/28 01:16:44;;;;;;;7.35;2.00;;;13.70;99.90;;;;;;4995937;28;20198;-89
2023/06/28 01:19:20;;;;;;;7.72;1.95;;;13.70;99.90;;;;;;4995757;28;20266;-91
2023/06/28 01:21:55;;;;;;;6.32;2.85;;;13.70;99.90;;;;;;5005669;28;20212;-92
2023/06/28 01:24:32;;;;;;;5.28;1.77;;;13.60;99.90;;;;;;5004137;28;20202;-92
2023/06/28 01:27:03;;;;;;;10.43;2.50;;;13.60;99.90;;;;;;4995060;28;20206;-90
2023/06/28 01:29:36;;;;;;;5.43;2.17;;;13.50;99.90;;;;;;4995640;28;20209;-91
2023/06/28 01:32:08;;;;;;;6.93;2.72;;;13.50;99.90;;;;;;4995611;28;20286;-90
2023/06/28 01:34:42;;;;;;;7.50;2.55;;;13.50;99.90;;;;;;4978350;28;20210;-89
2023/06/28 01:37:14;;;;;;;7.22;3.00;;;13.60;99.90;;;;;;4988534;28;20262;-89
2023/06/28 01:39:49;;;;;;;10.43;2.85;;;13.70;99.90;;;;;;4978543;28;20223;-90
2023/06/28 01:45:11;;;;;;;8.00;2.55;;;13.40;99.90;;;;;;4995096;28;20202;-89
2023/06/28 01:47:42;;;;;;;7.22;2.53;;;13.50;99.90;;;;;;4995351;28;20211;-89
2023/06/28 01:50:15;;;;;;;8.90;2.40;;;13.50;99.90;;;;;;4986793;28;20202;-89
2023/06/28 01:52:46;;;;;;;7.03;1.92;;;13.50;99.90;;;;;;4994212;28;20223;-89
2023/06/28 01:55:21;;;;;;;4.95;1.73;;;13.40;99.90;;;;;;4994631;28;20210;-88
2023/06/28 01:57:52;;;;;;;3.83;1.85;;;13.40;99.90;;;;;;4993365;28;20210;-88
2023/06/28 02:00:25;;;;;;;5.13;1.83;;;13.30;99.90;;;;;;4993505;28;20232;-84
2023/06/28 02:02:56;;;;;;;6.90;1.70;;;13.30;99.90;;;;;;4993362;28;20199;-84
2023/06/28 02:05:27;;;;;;;4.80;1.52;;;13.40;99.90;;;;;;4993041;28;20214;-84
2023/06/28 02:07:58;;;;;;;4.63;1.58;;;13.30;99.90;;;;;;4992951;28;20216;-84
2023/06/28 02:10:31;;;;;;;4.93;1.80;;;13.30;99.90;;;;;;4993342;28;20205;-84
2023/06/28 02:13:02;;;;;;;4.57;1.60;;;13.20;99.90;;;;;;4994260;28;20198;-84
2023/06/28 02:15:35;;;;;;;4.93;1.55;;;13.30;99.90;;;;;;4986058;28;20199;-83
2023/06/28 02:18:07;;;;;;;6.70;1.88;;;13.30;99.90;;;;;;4982013;28;20542;-84
2023/06/28 02:20:38;;;;;;;8.18;1.98;;;13.20;99.90;;;;;;4973997;28;20203;-83
2023/06/28 02:23:09;;;;;;;6.32;1.50;;;13.20;99.90;;;;;;4973745;28;20281;-84
2023/06/28 02:25:42;;;;;;;7.72;1.55;;;13.20;99.90;;;;;;4977180;28;20201;-83
2023/06/28 02:28:14;;;;;;;3.75;1.50;;;13.10;99.90;;;;;;4985142;28;20558;-85
2023/06/28 02:30:46;;;;;;;6.18;1.75;;;13.10;99.90;;;;;;4991113;28;20696;-85
2023/06/28 02:33:17;;;;;;;3.72;1.60;;;13.10;99.90;;;;;;4988126;28;20202;-86
2023/06/28 02:35:50;;;;;;;5.32;2.10;;;13.10;99.90;;;;;;4992791;28;20202;-85
2023/06/28 02:38:21;;;;;;;5.18;2.10;;;13.00;99.90;;;;;;4992627;28;20670;-86
2023/06/28 02:40:55;;;;;;;6.28;1.73;;;13.00;99.90;;;;;;4992445;28;20573;-86
2023/06/28 02:43:26;;;;;;;6.30;2.28;;;12.90;99.90;;;;;;4992424;28;20261;-86
2023/06/28 02:45:58;;;;;;;8.57;2.53;;;12.90;99.90;;;;;;4992299;28;20202;-85
2023/06/28 02:48:29;;;;;;;7.38;2.10;;;12.90;99.90;;;;;;4989734;28;20206;-85
2023/06/28 02:51:00;;;;;;;4.63;1.83;;;12.90;99.90;;;;;;4992454;28;20690;-86
2023/06/28 02:53:32;;;;;;;8.07;2.35;;;13.00;99.90;;;;;;4992706;28;20271;-85
2023/06/28 02:56:06;;;;;;;3.78;1.73;;;13.00;99.90;;;;;;4992510;28;20201;-86
2023/06/28 02:58:38;;;;;;;3.65;1.77;;;13.00;99.90;;;;;;4992798;28;20207;-84
2023/06/28 03:01:09;;;;;;;2.10;1.30;;;12.90;99.90;;;;;;5000177;28;20717;-85
2023/06/28 03:03:41;;;;;;;4.72;1.30;;;12.90;99.90;;;;;;4992196;28;20254;-85
2023/06/28 03:06:12;;;;;;;2.60;1.30;;;12.90;99.90;;;;;;4981795;28;20199;-85
2023/06/28 03:08:44;;;;;;;4.93;1.38;;;12.80;99.90;;;;;;4972614;28;20218;-84
2023/06/28 03:11:19;;;;;;;6.30;1.90;;;12.90;99.90;;;;;;4956108;28;20198;-84
2023/06/28 03:13:50;;;;;;;4.60;1.75;;;12.90;99.90;;;;;;4986386;28;20210;-84
2023/06/28 03:16:21;;;;;;;3.45;1.55;;;12.90;99.90;;;;;;4992504;28;20654;-85
2023/06/28 03:18:54;;;;;;;4.47;1.50;;;12.90;99.90;;;;;;4992117;28;20226;-85
2023/06/28 03:21:25;;;;;;;2.70;1.35;;;12.90;99.90;;;;;;4992011;28;20206;-85
2023/06/28 03:23:56;;;;;;;2.63;1.30;;;12.80;99.90;;;;;;4975297;28;20199;-85
2023/06/28 03:26:29;;;;;;;2.53;1.27;;;12.80;99.90;;;;;;4972504;28;20204;-85
2023/06/28 03:29:00;;;;;;;2.83;1.10;;;12.60;99.90;;;;;;4975312;28;20258;-84
2023/06/28 03:31:34;;;;;;;3.67;1.30;;;12.60;99.90;;;;;;4981105;28;20195;-85
2023/06/28 03:34:05;;;;;;;3.08;1.20;;;12.70;99.90;;;;;;4976259;28;20206;-82
2023/06/28 03:36:36;;;;;;;3.58;1.30;;;12.60;99.90;;;;;;4976339;28;20234;-83
2023/06/28 03:39:07;;;;;;;4.95;1.30;;;12.60;99.90;;;;;;4990131;28;20586;-84
2023/06/28 03:41:41;;;;;;;3.17;1.20;;;12.60;99.90;;;;;;4972603;28;20199;-84
2023/06/28 03:44:13;;;;;;;3.50;1.02;;;12.50;99.90;;;;;;4981306;28;20209;-84
2023/06/28 03:46:44;;;;;;;2.90;1.20;;;12.50;99.90;;;;;;4992102;28;20660;-85
2023/06/28 03:49:15;;;;;;;4.03;1.40;;;12.60;99.90;;;;;;4972653;28;20231;-85
2023/06/28 03:51:46;;;;;;;4.82;1.38;;;12.60;99.90;;;;;;4963948;28;20238;-86
2023/06/28 03:54:17;;;;;;;2.53;1.25;;;12.60;99.90;;;;;;4952658;29;20204;-86
2023/06/28 03:56:51;;;;;;;1.92;1.20;;;12.70;99.90;;;;;;4958558;28;20209;-84
2023/06/28 03:59:22;;;;;;;3.10;1.40;;;12.70;99.90;;;;;;4976158;28;20602;-85
2023/06/28 04:01:53;;;;;;;3.67;1.35;;;12.70;99.90;;;;;;4976051;28;20207;-85
2023/06/28 04:04:24;;;;;;;6.28;1.20;;;12.80;99.90;;;;;;4975944;28;20225;-85
2023/06/28 04:06:55;;;;;;;2.33;0.90;;;12.80;99.90;;;;;;4976741;28;20196;-85
2023/06/28 04:09:26;;;;;;;2.65;1.17;;;12.80;99.90;;;;;;4976286;28;20566;-85
2023/06/28 04:12:00;;;;;;;2.45;1.20;;;12.80;99.90;;;;;;4975883;28;20681;-84
2023/06/28 04:14:31;;;;;;;2.85;1.05;;;12.70;99.90;;;;;;4963305;28;20311;-84
2023/06/28 04:17:02;;;;;;;2.45;0.98;;;12.80;99.90;;;;;;4956848;29;20199;-85
2023/06/28 04:19:34;;;;;;;2.75;1.00;;;12.80;99.90;;;;;;4956242;29;20230;-85
2023/06/28 04:22:05;;;;;;;1.13;0.80;;;12.80;99.90;;;;;;4956298;29;20203;-84
2023/06/28 04:24:36;;;;;;;2.38;0.90;;;12.90;99.90;;;;;;4956546;29;20200;-84
2023/06/28 04:27:09;;;;;;;2.58;0.90;;;13.00;99.90;;;;;;4956421;29;20226;-84
2023/06/28 04:29:40;;;;;;;1.80;0.90;;;12.90;99.90;;;;;;4959783;28;20211;-85
2023/06/28 04:32:24;;;;;;;1.50;0.60;;;13.00;99.90;;;;;;4972944;28;20206;-85
2023/06/28 04:34:58;;;;;;;3.35;1.00;;;13.00;99.90;;;;;;4975985;28;20191;-84
2023/06/28 04:37:31;;;;;;;2.92;0.80;;;13.10;99.90;;;;;;4975874;28;20199;-85
2023/06/28 04:40:04;;;;;;;1.55;0.77;;;13.10;99.90;;;;;;4977692;28;20227;-85
2023/06/28 04:42:37;;;;;;;3.00;1.00;;;13.10;99.90;;;;;;4974722;28;20204;-85
2023/06/28 04:45:09;;;;;;;1.58;0.90;;;13.00;99.90;;;;;;4976155;28;20202;-85
2023/06/28 04:47:41;;;;;;;2.60;1.00;;;13.00;99.90;;;;;;4977158;28;20230;-85
2023/06/28 04:50:13;;;;;;;1.05;0.90;;;13.00;99.90;;;;;;4965244;29;20196;-84
2023/06/28 04:52:44;;;;;;;2.10;1.00;;;13.10;99.90;;;;;;4992814;28;20286;-83
2023/06/28 04:55:16;;;;;;;2.60;1.10;;;13.10;99.90;;;;;;4993873;28;20195;-84
2023/06/28 04:57:51;;;;;;;5.43;1.17;;;13.20;99.90;;;;;;4987681;28;20199;-84
2023/06/28 05:00:22;;;;;;;1.85;0.93;;;13.10;99.90;;;;;;4982795;28;20230;-85
2023/06/28 05:02:56;;;;;;;2.00;1.08;;;13.20;99.90;;;;;;4991954;28;20208;-84
2023/06/28 05:05:27;;;;;;;1.40;0.93;;;13.20;99.90;;;;;;5003116;28;20702;-84
2023/06/28 05:07:59;;;;;;;2.75;0.93;;;13.20;99.90;;;;;;4976645;28;20191;-84
2023/06/28 05:10:31;;;;;;;1.30;0.90;;;13.30;99.90;;;;;;4975348;28;20283;-84
2023/06/28 05:13:04;;;;;;;2.38;1.05;;;13.20;99.90;;;;;;4981751;28;20195;-84
2023/06/28 05:15:35;;;;;;;2.03;1.10;;;13.20;99.90;;;;;;4994093;28;20207;-84
2023/06/28 05:18:06;;;;;;;1.80;1.02;;;13.20;99.90;;;;;;4994117;28;20210;-85
2023/06/28 05:20:38;;;;;;;2.05;0.82;;;13.20;99.90;;;;;;4984146;28;20715;-84
2023/06/28 05:23:16;;;;;;;2.38;1.15;;;13.10;99.90;;;;;;4975415;28;20209;-86
2023/06/28 05:25:47;;;;;;;2.28;1.08;;;13.00;99.90;;;;;;4975529;28;20199;-85
2023/06/28 05:28:24;;;;;;;3.10;0.98;;;13.10;99.90;;;;;;4974820;28;20203;-84
2023/06/28 05:30:55;;;;;;;1.80;0.75;;;13.00;99.90;;;;;;4974843;28;20536;-84
2023/06/28 05:33:26;;;;;;;1.60;0.82;;;13.00;99.90;;;;;;4974554;28;20221;-85
2023/06/28 05:35:57;;;;;;;1.40;1.00;;;13.00;99.90;;;;;;4975662;28;20206;-84
2023/06/28 05:38:28;;;;;;;2.33;1.00;;;13.10;99.90;;;;;;5003627;28;20279;-84
2023/06/28 05:41:14;;;;;;;2.55;1.05;;;13.10;99.90;;;;;;4994304;28;20226;-85
2023/06/28 05:43:48;;;;;;;2.58;1.40;;;13.00;99.90;;;;;;4994117;28;20622;-85
2023/06/28 05:46:21;;;;;;;1.52;1.10;;;13.00;99.90;;;;;;4993687;28;20576;-84
2023/06/28 05:48:53;;;;;;;2.35;1.40;;;12.90;99.90;;;;;;4994094;28;20699;-86
2023/06/28 05:51:25;;;;;;;3.25;1.33;;;12.90;99.90;;;;;;4988004;28;20235;-86
2023/06/28 05:53:56;;;;;;;2.70;1.40;;;12.90;99.90;;;;;;4973229;28;20209;-86
2023/06/28 05:56:29;;;;;;;4.95;2.05;;;13.00;99.90;;;;;;4973125;28;20199;-86
2023/06/28 05:59:04;;;;;;;3.83;1.25;;;13.00;99.90;;;;;;4974170;28;20259;-86
2023/06/28 06:01:36;;;;;;;3.78;1.42;;;13.00;99.90;;;;;;4973898;28;20550;-85
2023/06/28 06:04:07;;;;;;;3.95;1.50;;;12.90;99.90;;;;;;4973660;28;20509;-85
2023/06/28 06:06:38;;;;;;;5.97;1.83;;;12.90;99.90;;;;;;4975216;28;20203;-86
2023/06/28 06:09:09;;;;;;;3.55;1.70;;;12.90;99.90;;;;;;4975451;28;20203;-86
2023/06/28 06:11:40;;;;;;;5.90;1.92;;;12.90;99.90;;;;;;4973897;28;20218;-86
2023/06/28 06:14:13;;;;;;;3.58;1.90;;;13.00;99.90;;;;;;4972890;28;20203;-86
2023/06/28 06:16:44;;;;;;;5.53;2.50;;;13.00;99.90;;;;;;4973916;28;20206;-85
2023/06/28 06:19:16;;;;;;;6.20;2.75;;;13.00;99.90;;;;;;4974130;28;20213;-86
2023/06/28 06:21:47;;;;;;;4.90;2.33;;;12.90;99.90;;;;;;4973515;28;20203;-86
2023/06/28 06:24:18;;;;;;;6.32;2.65;;;12.90;99.90;;;;;;4974340;28;20200;-88
2023/06/28 06:26:50;;;;;;;4.47;2.70;;;12.90;99.90;;;;;;4965927;28;20207;-87
2023/06/28 06:29:25;;;;;;;6.95;2.80;;;12.90;99.90;;;;;;4956683;28;20302;-89
2023/06/28 06:31:56;;;;;;;9.65;3.60;;;12.90;99.90;;;;;;4955282;29;20286;-88
2023/06/28 06:34:30;;;;;;;8.02;3.13;;;12.90;99.90;;;;;;4956120;29;20210;-91
2023/06/28 06:37:01;;;;;;;6.60;2.78;;;12.80;99.90;;;;;;4970588;28;20204;-92
2023/06/28 06:39:36;;;;;;;5.75;2.90;;;12.90;99.90;;;;;;4975916;28;20211;-92
2023/06/28 06:42:10;;;;;;;7.80;3.45;;;12.90;99.90;;;;;;4958801;28;20662;-91
2023/06/28 06:44:49;;;;;;;8.05;3.65;;;12.90;99.90;;;;;;4974639;28;20201;-91
2023/06/28 06:47:20;;;;;;;5.40;3.17;;;12.90;99.90;;;;;;4976712;28;20211;-91
2023/06/28 06:49:54;;;;;;;7.28;3.50;;;12.90;99.90;;;;;;4975504;28;20210;-91
2023/06/28 06:52:25;;;;;;;5.35;2.97;;;12.80;99.90;;;;;;4991234;28;20234;-90
2023/06/28 06:54:56;;;;;;;4.85;2.50;;;12.80;99.90;;;;;;5000885;28;20217;-90
2023/06/28 06:57:28;;;;;;;5.57;3.30;;;12.80;99.90;;;;;;4998085;28;20225;-90
2023/06/28 07:00:04;;;;;;;7.80;3.47;;;12.80;99.90;;;;;;4993179;28;20253;-91
2023/06/28 07:02:37;;;;;;;9.00;3.78;;;12.90;99.90;;;;;;4994161;28;20222;-91
2023/06/28 07:05:09;;;;;;;6.50;3.58;;;12.80;99.90;;;;;;4977501;28;20234;-90
2023/06/28 07:07:41;;;;;;;7.88;3.50;;;12.70;99.90;;;;;;4959222;28;20227;-90
2023/06/28 07:10:16;;;;;;;7.78;3.15;;;12.70;99.90;;;;;;4974327;28;20205;-90
2023/06/28 07:12:47;;;;;;;7.63;3.60;;;12.70;99.90;;;;;;4981305;28;20217;-89
2023/06/28 07:15:23;;;;;;;5.90;3.53;;;12.70;99.90;;;;;;4993809;28;20201;-90
2023/06/28 07:17:55;;;;;;;7.32;3.53;;;12.60;99.90;;;;;;4992443;28;20648;-89
2023/06/28 07:20:30;;;;;;;7.88;3.90;;;12.70;99.90;;;;;;4993403;28;20223;-89
2023/06/28 07:23:02;;;;;;;7.70;4.13;;;12.70;99.90;;;;;;4978993;28;20202;-90
2023/06/28 07:25:34;;;;;;;6.53;3.70;;;12.70;99.90;;;;;;4976697;28;20199;-92
2023/06/28 07:28:06;;;;;;;6.88;4.25;;;12.70;99.90;;;;;;4978924;28;20671;-92
2023/06/28 07:31:00;;;;;;;8.07;4.32;;;12.70;99.90;;;;;;4978601;28;20655;-91
2023/06/28 07:33:34;;;;;;;9.32;4.47;;;12.70;99.90;;;;;;4980019;28;20201;-90
2023/06/28 07:36:06;;;;;;;8.25;4.60;;;12.70;99.90;;;;;;4982325;28;20186;-91
2023/06/28 07:38:39;;;;;;;9.45;4.82;;;12.70;99.90;;;;;;4997095;28;20202;-91
2023/06/28 07:41:11;;;;;;;10.95;5.28;;;12.70;99.90;;;;;;5000158;28;20301;-90
2023/06/28 07:43:44;;;;;;;8.18;4.38;;;12.70;99.90;;;;;;4999672;28;20195;-89
2023/06/28 07:46:21;;;;;;;9.18;4.80;;;12.70;99.90;;;;;;4989843;28;20258;-90
2023/06/28 07:48:59;;;;;;;9.23;5.00;;;12.70;99.90;;;;;;4995312;28;20277;-91
2023/06/28 07:51:39;;;;;;;8.77;4.13;;;12.60;99.90;;;;;;4982853;28;20268;-90
2023/06/28 07:54:12;;;;;;;8.50;5.43;;;12.60;99.90;;;;;;4939843;28;20211;-90
2023/06/28 07:56:45;;;;;;;10.93;5.30;;;12.70;99.90;;;;;;4941575;29;20660;-91
2023/06/28 07:59:16;;;;;;;7.82;5.22;;;12.70;99.90;;;;;;4967219;28;20199;-91
2023/06/28 08:01:52;;;;;;;8.55;5.53;;;12.70;99.90;;;;;;4978086;28;20222;-91
2023/06/28 08:04:23;;;;;;;6.50;5.70;;;12.70;99.90;;;;;;4976235;28;20251;-90
2023/06/28 08:06:54;;;;;;;8.82;5.65;;;12.70;99.90;;;;;;4976724;28;20286;-91
2023/06/28 08:09:27;;;;;;;9.95;6.53;;;12.70;99.90;;;;;;4946564;29;20196;-91
2023/06/28 08:11:59;;;;;;;10.55;6.30;;;12.70;99.90;;;;;;4947697;28;20218;-91
2023/06/28 08:14:32;;;;;;;12.93;7.07;;;12.70;99.90;;;;;;4976254;28;20655;-90
2023/06/28 08:17:10;;;;;;;10.32;6.07;;;12.70;99.90;;;;;;4975413;28;20199;-91
2023/06/28 08:19:42;;;;;;;12.73;7.00;;;12.70;99.90;;;;;;4976224;28;20233;-91
2023/06/28 08:22:15;;;;;;;8.98;6.22;;;12.70;99.90;;;;;;4976049;28;20250;-90
2023/06/28 08:24:47;;;;;;;9.13;6.13;;;12.70;99.90;;;;;;4978670;28;20199;-90
2023/06/28 08:27:22;;;;;;;9.90;6.47;;;12.70;99.90;;;;;;4969141;28;20562;-91
2023/06/28 08:29:54;;;;;;;11.30;6.10;;;12.70;99.90;;;;;;4961719;28;20211;-91
2023/06/28 08:32:28;;;;;;;10.07;5.70;;;12.70;99.90;;;;;;4957199;28;20582;-91
2023/06/28 08:35:02;;;;;;;9.13;5.95;;;12.70;99.90;;;;;;4962508;28;20231;-90
2023/06/28 08:37:36;;;;;;;9.23;6.35;;;12.70;99.90;;;;;;4991335;28;20203;-90
2023/06/28 08:40:10;;;;;;;8.93;5.90;;;12.70;99.90;;;;;;4993032;28;20188;-91
2023/06/28 08:42:45;;;;;;;12.57;6.20;;;12.60;99.90;;;;;;4982571;28;20189;-88
2023/06/28 08:45:18;;;;;;;12.40;6.35;;;12.60;99.90;;;;;;4997032;28;20195;-90
2023/06/28 08:47:53;;;;;;;9.57;6.28;;;12.60;99.90;;;;;;4995093;28;20199;-89
2023/06/28 08:50:28;;;;;;;9.88;6.07;;;12.50;99.90;;;;;;4977738;28;20201;-89
2023/06/28 08:53:00;;;;;;;12.07;5.80;;;12.50;99.90;;;;;;4980682;28;20230;-89
2023/06/28 08:55:34;;;;;;;11.38;6.38;;;12.50;99.90;;;;;;5002504;28;20290;-90
2023/06/28 08:58:10;;;;;;;13.88;5.90;;;12.50;99.90;;;;;;4997595;28;20205;-90
2023/06/28 09:00:45;;;;;;;12.13;5.70;;;12.60;99.90;;;;;;4997390;28;20218;-91
2023/06/28 09:03:22;;;;;;;7.38;4.78;;;12.60;99.90;;;;;;4989191;28;20207;-91
2023/06/28 09:05:57;;;;;;;10.32;6.30;;;12.60;99.90;;;;;;4978098;28;20198;-91
2023/06/28 09:08:30;;;;;;;8.70;5.68;;;12.60;99.90;;;;;;4981809;28;20700;-90
2023/06/28 09:11:11;;;;;;;9.48;5.72;;;12.60;99.90;;;;;;5004001;28;20199;-89
2023/06/28 09:13:43;;;;;;;10.40;6.28;;;12.50;99.90;;;;;;4999343;28;20205;-90
2023/06/28 09:16:16;;;;;;;14.25;6.95;;;12.50;99.90;;;;;;4999238;28;20226;-90
2023/06/28 09:18:54;;;;;;;13.07;7.57;;;12.50;99.90;;;;;;5000509;28;20206;-91
2023/06/28 09:21:33;;;;;;;12.63;7.22;;;12.50;99.90;;;;;;5000024;28;20588;-91
2023/06/28 09:24:05;;;;;;;10.15;6.38;;;12.50;99.90;;;;;;5001031;28;20205;-91
2023/06/28 09:26:37;;;;;;;11.80;6.22;;;12.50;99.90;;;;;;4999324;28;20209;-89
2023/06/28 09:29:16;;;;;;;11.50;6.45;;;12.40;99.90;;;;;;4999751;28;20684;-91
2023/06/28 09:31:52;;;;;;;13.55;8.85;;;12.50;99.90;;;;;;4994873;28;20206;-92
2023/06/28 09:34:31;;;;;;;12.68;7.57;;;12.50;99.90;;;;;;4980614;28;20266;-91
2023/06/28 09:37:08;;;;;;;13.48;7.97;;;12.50;99.90;;;;;;4981538;28;20207;-92
2023/06/28 09:39:43;;;;;;;12.07;7.82;;;12.50;99.90;;;;;;4993204;28;20206;-92
2023/06/28 09:42:16;;;;;;;11.05;7.40;;;12.40;99.90;;;;;;4993427;28;20325;-92
2023/06/28 09:44:59;;;;;;;8.07;6.15;;;12.40;99.90;;;;;;4978344;28;20247;-91
2023/06/28 09:47:40;;;;;;;10.88;6.05;;;12.40;99.90;;;;;;4990649;28;20262;-92
2023/06/28 09:50:17;;;;;;;9.50;6.65;;;12.50;99.90;;;;;;5005700;28;20210;-91
2023/06/28 09:52:55;;;;;;;10.60;6.38;;;12.40;99.90;;;;;;4987405;28;20653;-91
2023/06/28 09:55:29;;;;;;;10.93;6.68;;;12.40;99.90;;;;;;4988489;28;20203;-92
2023/06/28 09:58:04;;;;;;;8.93;6.05;;;12.50;99.90;;;;;;4975522;28;20203;-92
2023/06/28 10:00:39;;;;;;;9.63;6.68;;;12.40;99.90;;;;;;4964669;28;20223;-91
2023/06/28 10:06:01;;;;;;;6.68;5.10;;;12.40;99.90;;;;;;4986494;28;20667;-91
2023/06/28 10:08:38;;;;;;;7.88;5.60;;;12.40;99.90;;;;;;4984483;28;20218;-92
2023/06/28 10:11:16;;;;;;;7.72;5.72;;;12.40;99.90;;;;;;4988222;28;20225;-92
2023/06/28 10:13:51;;;;;;;10.50;6.60;;;12.40;99.90;;;;;;4981079;28;20199;-93
2023/06/28 10:16:27;;;;;;;9.77;6.03;;;12.40;99.90;;;;;;4979046;28;20241;-91
2023/06/28 10:19:07;;;;;;;10.25;5.90;;;12.50;99.90;;;;;;4982644;28;20206;-91
2023/06/28 10:21:43;;;;;;;8.27;5.57;;;12.50;99.90;;;;;;4995549;28;20767;-92
2023/06/28 10:24:17;;;;;;;7.18;4.28;;;12.50;99.90;;;;;;4998331;28;20198;-92
2023/06/28 10:26:49;;;;;;;6.30;4.68;;;12.40;99.90;;;;;;4998246;28;20200;-91
2023/06/28 10:29:22;;;;;;;5.57;4.38;;;12.40;99.90;;;;;;4991323;28;20200;-91
2023/06/28 10:31:56;;;;;;;9.40;6.88;;;12.40;99.90;;;;;;4999116;28;20222;-91
2023/06/28 10:34:30;;;;;;;8.13;5.70;;;12.40;99.90;;;;;;5008571;28;20294;-91
2023/06/28 10:37:06;;;;;;;5.72;4.15;;;12.40;99.90;;;;;;5000035;28;20281;-92
2023/06/28 10:39:40;;;;;;;7.10;4.15;;;12.40;99.90;;;;;;4997229;28;20200;-93
2023/06/28 10:42:16;;;;;;;4.32;3.13;;;12.50;99.90;;;;;;4979429;28;20260;-91
2023/06/28 10:44:59;;;;;;;4.53;3.50;;;12.50;99.90;;;;;;4994243;28;20194;-92
2023/06/28 10:47:31;;;;;;;4.50;3.05;;;12.50;99.90;;;;;;4995528;28;20202;-92
2023/06/28 10:50:12;;;;;;;5.85;3.35;;;12.60;99.90;;;;;;5003992;28;20206;-90
2023/06/28 10:53:04;;;;;;;8.32;3.33;;;12.50;99.90;;;;;;4988042;28;20235;-90
2023/06/28 10:55:38;;;;;;;3.47;3.15;;;12.40;99.90;;;;;;4956614;28;20218;-93
2023/06/28 10:58:11;;;;;;;3.38;2.70;;;12.40;99.90;;;;;;4966371;28;20234;-92
2023/06/28 11:00:49;;;;;;;3.38;2.88;;;12.40;99.90;;;;;;4972801;28;20199;-91
2023/06/28 11:03:40;;;;;;;3.40;2.50;;;12.50;99.90;;;;;;4968955;28;20220;-92
2023/06/28 11:06:13;;;;;;;4.05;2.63;;;12.50;99.90;;;;;;4959502;28;20200;-91
2023/06/28 11:08:51;;;;;;;5.68;3.08;;;12.50;99.90;;;;;;4968322;28;20208;-92
2023/06/28 11:11:36;;;;;;;6.30;2.58;;;12.40;99.90;;;;;;4960315;28;20208;-91
2023/06/28 11:14:23;;;;;;;3.90;2.88;;;12.50;99.90;;;;;;4973648;28;20191;-92
2023/06/28 11:16:56;;;;;;;5.50;2.80;;;12.50;99.90;;;;;;4979583;28;20195;-93
2023/06/28 11:19:32;;;;;;;5.78;2.85;;;12.50;99.90;;;;;;4962823;28;20212;-91
2023/06/28 11:22:06;;;;;;;6.40;3.25;;;12.50;99.90;;;;;;4968330;28;20219;-92
2023/06/28 11:24:59;;;;;;;4.40;3.42;;;12.50;99.90;;;;;;4973940;28;20195;-91
2023/06/28 11:27:42;;;;;;;4.75;2.85;;;12.50;99.90;;;;;;4962027;28;20200;-92
2023/06/28 11:30:16;;;;;;;5.15;2.95;;;12.50;99.90;;;;;;4975974;28;20568;-93
2023/06/28 11:32:54;;;;;;;3.20;2.50;;;12.50;99.90;;;;;;4978970;28;20191;-92
2023/06/28 11:35:29;;;;;;;3.15;2.40;;;12.50;99.90;;;;;;4970253;28;20254;-93
2023/06/28 11:38:04;;;;;;;2.95;2.50;;;12.50;99.90;;;;;;4946416;29;20242;-91
2023/06/28 11:40:39;;;;;;;5.43;2.58;;;12.50;99.90;;;;;;4966691;28;20191;-91
2023/06/28 11:43:17;;;;;;;4.10;2.10;;;12.50;99.90;;;;;;4966432;28;20786;-92
2023/06/28 11:45:49;;;;;;;4.28;2.35;;;12.40;99.90;;;;;;4962650;28;20203;-91
2023/06/28 11:48:21;;;;;;;2.58;2.00;;;12.40;99.90;;;;;;4977577;28;20718;-90
2023/06/28 11:54:28;;;;;;;3.28;2.08;;;12.30;99.90;;;;;;5118208;23;20221;-92
2023/06/28 12:00:18;;;;;;;2.40;1.70;;;12.40;99.90;;;;;;5025461;28;20186;-91
2023/06/28 12:02:55;;;;;;;2.60;1.42;;;12.40;99.90;;;;;;5019451;28;20250;-92
2023/06/28 12:05:43;;;;;;;3.05;1.40;;;12.30;99.90;;;;;;5008532;28;20266;-90
2023/06/28 12:08:21;;;;;;;1.83;1.08;;;12.30;99.90;;;;;;5003257;28;20215;-92
2023/06/28 12:11:08;;;;;;;1.20;1.00;;;12.30;99.90;;;;;;4991357;28;20193;-91
2023/06/28 12:13:53;;;;;;;1.02;0.85;;;12.30;99.90;;;;;;5025867;28;20206;-92
2023/06/28 12:16:37;;;;;;;2.15;1.05;;;12.20;99.90;;;;;;5025215;28;20206;-90
2023/06/28 12:22:00;;;;;;;0.82;0.80;;;12.30;99.90;;;;;;5050379;28;20224;-91
2023/06/28 12:24:51;;;;;;;0.60;0.60;;;12.30;99.90;;;;;;5053106;28;20205;-90
2023/06/28 12:27:31;;;;;;;0.82;0.80;;;12.30;99.90;;;;;;5048980;28;20201;-90
2023/06/28 12:30:50;;;;;;;1.20;0.65;;;12.40;99.90;;;;;;5049410;28;20280;-92
2023/06/28 12:33:27;;;;;;;0.80;0.80;;;12.40;99.90;;;;;;5048575;28;20236;-92
2023/06/28 12:36:07;;;;;;;0.82;0.82;;;12.50;99.90;;;;;;5044953;28;20211;-92
2023/06/28 12:38:51;;;;;;;0.60;0.60;;;12.50;99.90;;;;;;5046599;28;20208;-92
2023/06/28 12:44:31;;;;;;;0.88;0.82;;;12.50;99.90;;;;;;5049163;28;20736;-88
2023/06/28 12:52:38;;;;;;;1.52;0.90;;;12.60;99.90;;;;;;5110366;22;20232;-92
2023/06/28 12:55:18;;;;;;;1.10;0.90;;;12.60;99.90;;;;;;5067432;28;20266;-92
2023/06/28 12:58:01;;;;;;;1.45;1.08;;;12.60;99.90;;;;;;5063703;28;20200;-91
2023/06/28 13:12:07;;;;;;;2.45;1.20;;;12.40;99.90;;;;;;5047032;28;20267;-93
2023/06/28 13:14:43;;;;;;;1.25;0.85;;;12.40;99.90;;;;;;5053075;28;20185;-92
2023/06/28 13:17:22;;;;;;;1.40;1.20;;;12.50;99.90;;;;;;5048682;28;20201;-92
2023/06/28 13:22:47;;;;;;;1.10;1.00;;;12.50;99.90;;;;;;5063147;28;20267;-91
2023/06/28 13:25:35;;;;;;;0.80;0.80;;;12.50;99.90;;;;;;5067562;28;20204;-91
2023/06/28 13:28:10;;;;;;;1.95;1.10;;;12.50;99.90;;;;;;5065510;28;20228;-91
2023/06/28 13:30:49;;;;;;;2.03;1.13;;;12.50;99.90;;;;;;5064889;28;20196;-93
2023/06/28 13:33:26;;;;;;;1.63;1.10;;;12.50;99.90;;;;;;5066607;28;20208;-93
2023/06/28 13:36:19;;;;;;;1.48;1.30;;;12.50;99.90;;;;;;5066042;28;20206;-92
2023/06/28 13:38:54;;;;;;;3.80;1.77;;;12.50;99.90;;;;;;5065042;28;20258;-92
2023/06/28 13:41:35;;;;;;;2.20;1.55;;;12.50;99.90;;;;;;5063789;28;20207;-91
2023/06/28 13:44:39;;;;;;;1.88;1.70;;;12.60;99.90;;;;;;5044935;28;20206;-92
2023/06/28 13:50:07;;;;;;;1.52;1.30;;;12.50;99.90;;;;;;5061611;28;20197;-91
2023/06/28 13:52:43;;;;;;;2.42;1.60;;;12.50;99.90;;;;;;5045140;28;20312;-92
2023/06/28 13:55:14;;;;;;;2.47;1.40;;;12.50;99.90;;;;;;5040946;28;20215;-91
2023/06/28 13:57:46;;;;;;;2.45;1.40;;;12.50;99.90;;;;;;5053607;28;20194;-92
2023/06/28 14:00:18;;;;;;;1.58;1.25;;;12.50;99.90;;;;;;5053813;28;20205;-91
2023/06/28 14:02:51;;;;;;;1.95;1.20;;;12.40;99.90;;;;;;5021303;28;20235;-90